Juneau International, AK

1:21 PM AKDT on September 01, 2014 (GMT -0800)
Elfin Cove | Change Station
CLOSE
Current Station
Airport
Location: Elfin Cove,
Elevation: 0 ft
Nearby Weather Stations

Elev 0 ft 58.20 °N, 136.35 °W | Updated 26 minutes ago

Mostly Cloudy
Mostly Cloudy
57 °F
Feels Like 57 °F
N
7
Wind Variable Wind from WNW

Today
High -- | Low -- °F
--% Chance of Precip.
Yesterday
High -- | Low -- °F
Precip. -- in
5:57 AM 7:57 PM
Waxing Crescent, 44% visible
Pressure 29.77 in
Visibility 15.0 miles
Clouds Few 1700 ft
Scattered Clouds 2400 ft
Mostly Cloudy 6000 ft
Dew Point 52 °F
Humidity 82%
Rainfall 0.00 in
Snow Depth Not available.
UV 3 out of 12
Pollen Not available.
Air Quality Not available.
Flu Activity Not available.
METAR PAEL 012055Z 30006KT 15SM FEW017 SCT024 BKN060 14/11 A2977 RMK SPB E23010KT SEA 0 SWELL 2 1/2 SW NOSPECI

More Conditions Fewer Conditions

Pressure 29.77 in
Visibility 15.0 miles
Clouds Few 1700 ft
Scattered Clouds 2400 ft
Mostly Cloudy 6000 ft
Dew Point 52 °F
Humidity 82%
Rainfall 0.00 in
Snow Depth Not available.
UV 3 out of 12
Pollen Not available.
Air Quality Not available.
Flu Activity Not available.
METAR PAEL 012055Z 30006KT 15SM FEW017 SCT024 BKN060 14/11 A2977 RMK SPB E23010KT SEA 0 SWELL 2 1/2 SW NOSPECI

More Conditions Fewer Conditions

10-Day Weather Forecast

Almanac

Astronomy

Sep. 01, 2014 Rise Set
Actual Time 5:57 AM AKDT 7:57 PM AKDT
Civil Twilight 5:15 AM AKDT 8:39 PM AKDT
Nautical Twilight 4:20 AM AKDT 9:33 PM AKDT
Astronomical Twilight 3:14 AM AKDT 10:38 PM AKDT
Moon 2:22 PM AKDT 10:31 PM AKDT
Length of Visible Light 15h 24m
Length of Day
13h 59m
Tomorrow will be 5m 0s shorter.
Waxing Crescent, 44% of the Moon is Illuminated
Today
Waxing Crescent
Sep 2
First Quarter
Sep 8
Full
Sep 15
Last Quarter
Sep 24
New

Today's Extremes

State Highs State Lows

Community

WunderPhotos

Upload Photos

1,749,413 photos uploaded!

WunderBlogs® & News

Nearby

Snow Depth

Station Depth Elevation
Long Lake 0 in 820 ft
Granite Creek 0 in 1240 ft
Grandview 14 in 1100 ft
Grouse Creek Divide 0 in 700 ft
Turnagain Pass 0 in 1880 ft

Earthquake Activity

City Distance Mag. Time & Date
No recent earthquake activity has been reported nearby.
Minimum magnitude displayed is 2.5.

Coastal Water Temperatures

Place Temperature
No Stations Reporting

Nearby Weather Stations